createdAt,value
2023-01-04T00:00:03.045Z,101127.16
2023-01-04T00:03:10.746Z,101126.53
2023-01-04T00:06:21.173Z,101135.73
2023-01-04T00:09:26.422Z,101138.80
2023-01-04T00:12:33.642Z,101143.81
2023-01-04T00:15:39.891Z,101147.34
2023-01-04T00:18:49.315Z,101145.38
2023-01-04T00:21:56.408Z,101143.02
2023-01-04T00:25:02.165Z,101149.03
2023-01-04T00:28:10.468Z,101148.87
2023-01-04T00:31:23.837Z,101148.27
2023-01-04T00:34:31.051Z,101148.97
2023-01-04T00:37:37.076Z,101149.20
2023-01-04T00:40:45.048Z,101150.78
2023-01-04T00:43:51.668Z,101145.20
2023-01-04T00:46:58.429Z,101154.03
2023-01-04T00:50:03.978Z,101144.03
2023-01-04T00:53:09.982Z,101141.66
2023-01-04T00:56:15.385Z,101138.31
2023-01-04T00:59:22.444Z,101135.72
2023-01-04T01:02:29.902Z,101135.58
2023-01-04T01:05:37.055Z,101138.04
2023-01-04T01:08:44.760Z,101141.45
2023-01-04T01:11:50.447Z,101135.50
2023-01-04T01:15:00.454Z,101134.27
2023-01-04T01:18:05.137Z,101131.27
2023-01-04T01:21:10.746Z,101137.30
2023-01-04T01:24:20.101Z,101136.43
2023-01-04T01:27:25.716Z,101143.67
2023-01-04T01:30:32.082Z,101140.23
2023-01-04T01:33:37.928Z,101141.19
2023-01-04T01:36:44.155Z,101138.59
2023-01-04T01:39:50.683Z,101139.58
2023-01-04T01:42:56.664Z,101141.05
2023-01-04T01:46:05.374Z,101131.95
2023-01-04T01:49:16.055Z,101127.52
2023-01-04T01:52:26.476Z,101129.24
2023-01-04T01:55:32.906Z,101130.12
2023-01-04T01:58:46.839Z,101124.42
2023-01-04T02:01:53.192Z,101126.76
2023-01-04T02:05:02.583Z,101121.94
2023-01-04T02:08:08.750Z,101128.45
2023-01-04T02:11:16.297Z,101123.62
2023-01-04T02:14:35.013Z,101125.20
2023-01-04T02:18:00.334Z,101118.55
2023-01-04T02:21:14.993Z,101125.65
2023-01-04T02:24:28.884Z,101129.05
2023-01-04T02:28:04.224Z,101126.94
2023-01-04T02:31:30.144Z,101120.03
2023-01-04T02:34:40.933Z,101126.50
2023-01-04T02:38:03.099Z,101124.42
2023-01-04T02:41:37.846Z,101124.13
2023-01-04T02:45:03.257Z,101127.83
2023-01-04T02:48:27.273Z,101124.75
2023-01-04T02:51:50.104Z,101120.70
2023-01-04T02:54:56.365Z,101124.35
2023-01-04T02:58:23.517Z,101122.63
2023-01-04T03:02:25.220Z,101122.23
2023-01-04T03:06:13.626Z,101113.77
2023-01-04T03:09:28.517Z,101118.41
2023-01-04T03:12:42.525Z,101124.79
2023-01-04T03:15:50.977Z,101119.02
2023-01-04T03:19:03.130Z,101120.95
2023-01-04T03:22:08.464Z,101130.05
2023-01-04T03:25:31.052Z,101121.17
2023-01-04T03:28:55.330Z,101124.36
2023-01-04T03:32:39.845Z,101128.16
2023-01-04T03:36:00.583Z,101122.97
2023-01-04T03:39:31.026Z,101128.37
2023-01-04T03:43:35.214Z,101134.36
2023-01-04T03:47:17.061Z,101142.28
2023-01-04T03:50:26.801Z,101139.43
2023-01-04T03:53:32.773Z,101130.95
2023-01-04T03:56:41.072Z,101134.50
2023-01-04T03:59:47.106Z,101138.66
2023-01-04T04:02:56.007Z,101136.17
2023-01-04T04:06:20.769Z,101148.91
2023-01-04T04:09:26.221Z,101144.50
2023-01-04T04:12:31.298Z,101142.77
2023-01-04T04:15:37.477Z,101144.23
2023-01-04T04:18:42.780Z,101146.53
2023-01-04T04:21:49.601Z,101149.81
2023-01-04T04:24:55.855Z,101147.23
2023-01-04T04:28:01.149Z,101147.23
2023-01-04T04:31:07.354Z,101146.09
2023-01-04T04:34:13.792Z,101152.84
2023-01-04T04:37:19.310Z,101154.80
2023-01-04T04:40:37.196Z,101155.39
2023-01-04T04:43:43.067Z,101161.37
2023-01-04T04:46:49.276Z,101157.53
2023-01-04T04:49:56.033Z,101159.09
2023-01-04T04:53:02.611Z,101149.45
2023-01-04T04:56:08.081Z,101148.20
2023-01-04T04:59:14.014Z,101146.96
2023-01-04T05:02:20.304Z,101152.57
2023-01-04T05:05:20.289Z,101151.06
2023-01-04T05:08:07.367Z,101152.11
2023-01-04T05:11:00.004Z,101163.42
2023-01-04T05:13:53.709Z,101158.23
2023-01-04T05:16:59.675Z,101169.70
2023-01-04T05:20:05.368Z,101160.36
2023-01-04T05:23:11.288Z,101167.32
2023-01-04T05:26:16.496Z,101156.73
2023-01-04T05:29:23.106Z,101162.70
2023-01-04T05:32:28.193Z,101161.06
2023-01-04T05:35:33.272Z,101163.22
2023-01-04T05:38:40.298Z,101161.58
2023-01-04T05:42:04.030Z,101158.50
2023-01-04T05:45:10.039Z,101165.83
2023-01-04T05:48:15.721Z,101164.84
2023-01-04T05:51:21.183Z,101165.83
2023-01-04T05:54:28.221Z,101161.78
2023-01-04T05:57:33.794Z,101163.13
2023-01-04T06:00:42.375Z,101166.30
2023-01-04T06:03:49.561Z,101165.36
2023-01-04T06:06:56.147Z,101164.38
2023-01-04T06:10:03.063Z,101167.44
2023-01-04T06:13:08.580Z,101169.20
2023-01-04T06:16:14.612Z,101170.34
2023-01-04T06:19:21.521Z,101180.56
2023-01-04T06:22:26.931Z,101180.83
2023-01-04T06:25:37.012Z,101181.60
2023-01-04T06:28:43.569Z,101184.97
2023-01-04T06:31:50.166Z,101183.89
2023-01-04T06:34:56.090Z,101201.23
2023-01-04T06:38:01.998Z,101197.08
2023-01-04T06:41:09.033Z,101190.63
2023-01-04T06:44:15.283Z,101198.31
2023-01-04T06:47:21.031Z,101197.53
2023-01-04T06:50:27.135Z,101200.02
2023-01-04T06:53:33.115Z,101201.53
2023-01-04T06:56:40.418Z,101194.36
2023-01-04T06:59:45.995Z,101201.57
2023-01-04T07:03:13.766Z,101202.23
2023-01-04T07:06:00.951Z,101206.27
2023-01-04T07:09:07.162Z,101203.72
2023-01-04T07:12:12.848Z,101209.31
2023-01-04T07:15:39.507Z,101214.88
2023-01-04T07:18:26.356Z,101215.91
2023-01-04T07:21:33.639Z,101212.98
2023-01-04T07:24:40.993Z,101219.53
2023-01-04T07:27:46.817Z,101219.14
2023-01-04T07:30:53.992Z,101217.47
2023-01-04T07:34:05.340Z,101219.48
2023-01-04T07:37:11.657Z,101217.19
2023-01-04T07:40:16.339Z,101221.21
2023-01-04T07:43:27.703Z,101223.70
2023-01-04T07:46:30.568Z,101221.91
2023-01-04T07:49:37.131Z,101227.06
2023-01-04T07:52:45.859Z,101224.69
2023-01-04T07:55:51.953Z,101230.78
2023-01-04T07:59:01.396Z,101231.22
2023-01-04T08:02:08.916Z,101231.28
2023-01-04T08:05:14.853Z,101228.13
2023-01-04T08:08:21.886Z,101225.56
2023-01-04T08:11:32.294Z,101237.27
2023-01-04T08:14:39.574Z,101240.85
2023-01-04T08:17:47.730Z,101232.88
2023-01-04T08:20:58.478Z,101238.13
2023-01-04T08:24:02.624Z,101234.85
2023-01-04T08:27:09.293Z,101230.34
2023-01-04T08:30:21.525Z,101235.30
2023-01-04T08:33:31.814Z,101239.55
2023-01-04T08:36:46.464Z,101231.02
2023-01-04T08:39:52.185Z,101236.89
2023-01-04T08:42:57.249Z,101245.34
2023-01-04T08:46:03.998Z,101243.39
2023-01-04T08:49:09.269Z,101235.42
2023-01-04T08:52:16.414Z,101231.88
2023-01-04T08:55:23.827Z,101232.65
2023-01-04T08:58:30.062Z,101239.08
2023-01-04T09:01:37.380Z,101231.45
2023-01-04T09:04:43.665Z,101242.10
2023-01-04T09:07:48.930Z,101238.55
2023-01-04T09:10:54.865Z,101244.37
2023-01-04T09:14:07.397Z,101242.02
2023-01-04T09:17:08.334Z,101250.03
2023-01-04T09:20:16.086Z,101242.89
2023-01-04T09:23:22.451Z,101238.85
2023-01-04T09:26:33.654Z,101236.25
2023-01-04T09:29:40.804Z,101240.72
2023-01-04T09:32:42.219Z,101220.97
2023-01-04T09:35:49.144Z,101220.97
2023-01-04T09:38:55.879Z,101228.11
2023-01-04T09:42:13.004Z,101219.34
2023-01-04T09:45:33.826Z,101218.38
2023-01-04T09:48:43.116Z,101217.14
2023-01-04T09:51:51.810Z,101201.48
2023-01-04T09:55:37.092Z,101201.14
2023-01-04T09:58:31.856Z,101207.31
2023-01-04T10:01:47.075Z,101200.51
2023-01-04T10:05:04.205Z,101196.83
2023-01-04T10:08:11.119Z,101206.33
2023-01-04T10:11:41.089Z,101200.51
2023-01-04T10:14:59.525Z,101195.72
2023-01-04T10:21:40.196Z,101207.08
2023-01-04T10:25:09.963Z,101202.49
2023-01-04T10:28:45.769Z,101203.01
2023-01-04T10:31:55.323Z,101202.62
2023-01-04T10:35:02.875Z,101203.62
2023-01-04T10:38:17.032Z,101201.38
2023-01-04T10:41:29.081Z,101195.20
2023-01-04T10:45:13.951Z,101206.81
2023-01-04T10:48:28.840Z,101208.56
2023-01-04T10:51:50.429Z,101222.62
2023-01-04T10:55:15.578Z,101237.41
2023-01-04T10:58:39.257Z,101220.63
2023-01-04T11:01:55.004Z,101223.95
2023-01-04T11:05:13.953Z,101224.31
2023-01-04T11:08:37.429Z,101212.10
2023-01-04T11:11:54.921Z,101215.81
2023-01-04T11:15:01.244Z,101207.30
2023-01-04T11:18:07.588Z,101216.44
2023-01-04T11:21:14.162Z,101215.20
2023-01-04T11:24:31.966Z,101212.60
2023-01-04T11:27:34.342Z,101224.94
2023-01-04T11:30:43.807Z,101229.66
2023-01-04T11:34:15.151Z,101223.13
2023-01-04T11:37:24.143Z,101211.89
2023-01-04T11:40:36.614Z,101217.44
2023-01-04T11:43:45.481Z,101215.82
2023-01-04T11:46:52.881Z,101222.08
2023-01-04T11:49:59.782Z,101214.19
2023-01-04T11:53:06.627Z,101207.89
2023-01-04T11:56:36.442Z,101214.06
2023-01-04T11:59:43.586Z,101210.99
2023-01-04T12:03:01.204Z,101220.09
2023-01-04T12:05:57.752Z,101216.03
2023-01-04T12:09:03.768Z,101213.77
2023-01-04T12:12:15.965Z,101222.55
2023-01-04T12:15:31.265Z,101205.36
2023-01-04T12:18:46.153Z,101215.49
2023-01-04T12:21:55.738Z,101219.56
2023-01-04T12:25:01.811Z,101223.99
2023-01-04T12:28:08.523Z,101214.86
2023-01-04T12:31:37.118Z,101219.08
2023-01-04T12:34:47.962Z,101218.08
2023-01-04T12:37:59.565Z,101209.46
2023-01-04T12:41:07.132Z,101237.07
2023-01-04T12:44:13.344Z,101221.55
2023-01-04T12:47:52.321Z,101222.63
2023-01-04T12:51:37.198Z,101224.47
2023-01-04T12:54:50.245Z,101215.97
2023-01-04T12:57:55.960Z,101230.89
2023-01-04T13:01:12.819Z,101233.72
2023-01-04T13:04:30.512Z,101230.89
2023-01-04T13:07:43.982Z,101240.23
2023-01-04T13:11:06.729Z,101242.94
2023-01-04T13:14:26.977Z,101247.88
2023-01-04T13:17:37.225Z,101257.09
2023-01-04T13:20:43.550Z,101234.92
2023-01-04T13:23:50.574Z,101246.48
2023-01-04T13:27:01.876Z,101243.50
2023-01-04T13:30:10.326Z,101249.67
2023-01-04T13:33:28.367Z,101237.31
2023-01-04T13:36:33.747Z,101247.28
2023-01-04T13:39:38.795Z,101242.21
2023-01-04T13:42:46.044Z,101250.46
2023-01-04T13:46:30.402Z,101255.36
2023-01-04T13:49:38.143Z,101255.83
2023-01-04T13:53:03.641Z,101261.12
2023-01-04T13:55:53.173Z,101253.05
2023-01-04T13:59:00.868Z,101261.05
2023-01-04T14:02:06.198Z,101263.12
2023-01-04T14:05:15.220Z,101260.01
2023-01-04T14:08:27.194Z,101255.10
2023-01-04T14:12:08.144Z,101253.35
2023-01-04T14:15:39.421Z,101259.16
2023-01-04T14:18:44.952Z,101258.77
2023-01-04T14:21:52.575Z,101266.42
2023-01-04T14:25:09.093Z,101274.55
2023-01-04T14:28:05.432Z,101280.08
2023-01-04T14:31:19.747Z,101272.55
2023-01-04T14:34:27.600Z,101278.08
2023-01-04T14:37:32.896Z,101277.60
2023-01-04T14:40:40.020Z,101268.59
2023-01-04T14:44:06.624Z,101271.42
2023-01-04T14:47:15.480Z,101273.17
2023-01-04T14:50:22.073Z,101280.06
2023-01-04T14:53:29.174Z,101272.13
2023-01-04T14:56:35.795Z,101276.70
2023-01-04T14:59:41.203Z,101287.66
2023-01-04T15:02:48.938Z,101298.97
2023-01-04T15:05:56.070Z,101278.88
2023-01-04T15:09:03.332Z,101282.18
2023-01-04T15:12:12.323Z,101280.58
2023-01-04T15:15:20.097Z,101277.58
2023-01-04T15:18:25.659Z,101274.45
2023-01-04T15:21:32.930Z,101275.23
2023-01-04T15:24:37.749Z,101281.22
2023-01-04T15:27:43.431Z,101275.37
2023-01-04T15:30:49.752Z,101284.78
2023-01-04T15:33:55.357Z,101284.97
2023-01-04T15:37:01.941Z,101289.69
2023-01-04T15:40:07.069Z,101292.36
2023-01-04T15:43:12.734Z,101293.98
2023-01-04T15:46:21.429Z,101298.30
2023-01-04T15:49:26.741Z,101297.08
2023-01-04T15:52:32.040Z,101308.53
2023-01-04T15:55:37.895Z,101301.94
2023-01-04T15:58:43.767Z,101312.39
2023-01-04T16:01:50.363Z,101303.42
2023-01-04T16:04:58.498Z,101306.17
2023-01-04T16:08:07.298Z,101302.14
2023-01-04T16:11:15.902Z,101304.17
2023-01-04T16:14:22.248Z,101302.66
2023-01-04T16:17:28.248Z,101301.61
2023-01-04T16:20:34.157Z,101297.87
2023-01-04T16:23:42.802Z,101298.55
2023-01-04T16:26:50.014Z,101303.28
2023-01-04T16:29:57.153Z,101312.16
2023-01-04T16:33:03.679Z,101307.94
2023-01-04T16:36:21.297Z,101318.95
2023-01-04T16:39:57.204Z,101311.52
2023-01-04T16:42:35.279Z,101319.42
2023-01-04T16:45:41.670Z,101316.55
2023-01-04T16:48:47.598Z,101318.67
2023-01-04T16:51:57.429Z,101314.45
2023-01-04T16:55:03.616Z,101314.25
2023-01-04T16:58:09.817Z,101314.08
2023-01-04T17:01:28.904Z,101315.72
2023-01-04T17:04:36.406Z,101304.81
2023-01-04T17:07:42.680Z,101304.80
2023-01-04T17:10:51.881Z,101309.66
2023-01-04T17:13:57.893Z,101298.28
2023-01-04T17:17:06.363Z,101304.72
2023-01-04T17:20:13.514Z,101291.92
2023-01-04T17:23:19.589Z,101299.23
2023-01-04T17:26:27.368Z,101298.93
2023-01-04T17:29:33.486Z,101302.33
2023-01-04T17:32:41.103Z,101301.74
2023-01-04T17:35:50.529Z,101306.35
2023-01-04T17:38:56.898Z,101311.84
2023-01-04T17:42:03.318Z,101307.63
2023-01-04T17:45:08.372Z,101305.95
2023-01-04T17:48:15.229Z,101315.12
2023-01-04T17:51:31.450Z,101309.82
2023-01-04T17:54:38.247Z,101309.41
2023-01-04T17:57:45.733Z,101288.91
2023-01-04T18:00:52.378Z,101294.68
2023-01-04T18:04:01.439Z,101297.00
2023-01-04T18:07:07.955Z,101298.82
2023-01-04T18:10:27.218Z,101285.16
2023-01-04T18:13:23.020Z,101281.30
2023-01-04T18:16:34.922Z,101281.09
2023-01-04T18:19:46.469Z,101280.50
2023-01-04T18:22:52.079Z,101277.20
2023-01-04T18:25:58.871Z,101270.56
2023-01-04T18:29:06.259Z,101265.77
2023-01-04T18:32:12.920Z,101258.72
2023-01-04T18:35:20.869Z,101268.25
2023-01-04T18:38:26.804Z,101275.48
2023-01-04T18:41:35.869Z,101270.26
2023-01-04T18:44:48.851Z,101270.85
2023-01-04T18:47:55.528Z,101267.84
2023-01-04T18:51:01.310Z,101271.52
2023-01-04T18:54:08.786Z,101261.02
2023-01-04T18:57:14.639Z,101259.36
2023-01-04T19:00:21.444Z,101258.10
2023-01-04T19:03:27.096Z,101267.72
2023-01-04T19:06:35.099Z,101264.65
2023-01-04T19:09:40.979Z,101264.84
2023-01-04T19:12:47.814Z,101279.71
2023-01-04T19:15:58.234Z,101274.78
2023-01-04T19:19:04.071Z,101266.75
2023-01-04T19:22:10.245Z,101261.36
2023-01-04T19:25:20.777Z,101247.86
2023-01-04T19:28:27.885Z,101248.31
2023-01-04T19:31:35.057Z,101251.55
2023-01-04T19:34:43.719Z,101249.09
2023-01-04T19:37:50.355Z,101249.08
2023-01-04T19:40:58.126Z,101244.89
2023-01-04T19:44:04.529Z,101245.48
2023-01-04T19:47:12.065Z,101255.05
2023-01-04T19:50:18.241Z,101256.19
2023-01-04T19:53:25.332Z,101251.78
2023-01-04T19:56:31.652Z,101252.95
2023-01-04T19:59:39.531Z,101242.00
2023-01-04T20:02:46.590Z,101249.75
2023-01-04T20:05:54.436Z,101244.00
2023-01-04T20:09:02.082Z,101248.50
2023-01-04T20:12:10.135Z,101254.84
2023-01-04T20:15:17.791Z,101254.84
2023-01-04T20:18:25.411Z,101255.22
2023-01-04T20:21:32.660Z,101251.42
2023-01-04T20:24:37.593Z,101236.21
2023-01-04T20:27:43.146Z,101236.53
2023-01-04T20:30:53.679Z,101233.29
2023-01-04T20:34:01.058Z,101233.75
2023-01-04T20:37:07.617Z,101236.06
2023-01-04T20:40:15.020Z,101228.46
2023-01-04T20:43:39.063Z,101228.38
2023-01-04T20:46:48.299Z,101223.55
2023-01-04T20:49:52.433Z,101220.66
2023-01-04T20:52:59.313Z,101220.66
2023-01-04T20:56:05.232Z,101233.94
2023-01-04T20:59:13.390Z,101227.41
2023-01-04T21:02:21.277Z,101224.16
2023-01-04T21:05:27.360Z,101216.08
2023-01-04T21:08:34.271Z,101212.42
2023-01-04T21:11:40.388Z,101207.92
2023-01-04T21:14:46.497Z,101213.77
2023-01-04T21:17:54.505Z,101206.28
2023-01-04T21:20:59.769Z,101203.78
2023-01-04T21:24:08.011Z,101206.47
2023-01-04T21:27:14.088Z,101201.55
2023-01-04T21:30:22.706Z,101203.37
2023-01-04T21:33:32.662Z,101198.48
2023-01-04T21:36:42.724Z,101193.02
2023-01-04T21:39:51.148Z,101192.05
2023-01-04T21:42:57.101Z,101192.33
2023-01-04T21:46:02.969Z,101193.13
2023-01-04T21:49:13.516Z,101184.86
2023-01-04T21:52:19.985Z,101184.68
2023-01-04T21:55:32.445Z,101194.80
2023-01-04T21:58:34.975Z,101187.88
2023-01-04T22:01:43.113Z,101175.59
2023-01-04T22:04:49.521Z,101171.87
2023-01-04T22:07:55.670Z,101170.33
2023-01-04T22:11:07.781Z,101173.31
2023-01-04T22:14:12.939Z,101174.47
2023-01-04T22:17:19.125Z,101161.42
2023-01-04T22:20:29.059Z,101163.52
2023-01-04T22:23:35.382Z,101153.25
2023-01-04T22:26:44.132Z,101148.05
2023-01-04T22:29:51.366Z,101159.09
2023-01-04T22:32:58.200Z,101146.92
2023-01-04T22:36:05.311Z,101143.85
2023-01-04T22:39:11.972Z,101133.67
2023-01-04T22:42:18.817Z,101127.34
2023-01-04T22:45:25.216Z,101118.40
2023-01-04T22:48:31.477Z,101114.54
2023-01-04T22:51:36.389Z,101107.04
2023-01-04T22:54:42.613Z,101095.97
2023-01-04T22:57:49.833Z,101090.48
2023-01-04T23:00:49.645Z,101099.15
2023-01-04T23:03:37.834Z,101096.26
2023-01-04T23:06:31.427Z,101094.71
2023-01-04T23:09:29.422Z,101075.48
2023-01-04T23:12:35.935Z,101077.50
2023-01-04T23:15:42.181Z,101068.34
2023-01-04T23:18:49.571Z,101057.86
2023-01-04T23:21:55.523Z,101053.62
2023-01-04T23:25:02.040Z,101039.17
2023-01-04T23:28:09.586Z,101044.45
2023-01-04T23:31:20.687Z,101035.42
2023-01-04T23:34:26.844Z,101033.98
2023-01-04T23:37:33.067Z,101021.92
2023-01-04T23:40:39.664Z,101024.50
2023-01-04T23:43:45.891Z,101022.95
2023-01-04T23:46:52.273Z,101020.58
2023-01-04T23:49:59.167Z,101012.95
2023-01-04T23:53:04.328Z,101013.30
2023-01-04T23:56:21.182Z,101010.96
2023-01-04T23:59:27.811Z,101005.75
